• Join FlightAware (Why Join?)
  • Login
  • US Flag 
Trick or treat! (Boo!!) 
01:08AM EDT


 

Airport Tracker/Info


-or-


 

Live Flight TrackerFlight Track Log ✈ N8060R ✈ 27-Apr-2013 ✈ I19 - KHWY

Flight Track Log - Related Links

Times and Time Zones

All times are in EDT time to prevent confusion due to time zone crossing. See the N8060R flight status page for this flight to view local times or setup timezone preferences in your user account.

Time Position Orientation Groundspeed Altitude Reporting Facility
EDT Latitude Longitude Course Direction KTS MPH feet Rate Location/Type
04:38PM 39.6444 -83.7336 104° East 79 91 5,500  Level Indianapolis Center
04:39PM 39.6417 -83.7192 104° East 80 92 5,600 300 Climbing Indianapolis Center
04:39PM 39.6364 -83.7028 113° Southeast 75 86 5,900 360 Climbing Indianapolis Center
04:40PM 39.6336 -83.6931 110° East 78 90 6,000 240 Climbing Indianapolis Center
04:40PM 39.6297 -83.6775 108° East 78 90 6,200 360 Climbing Indianapolis Center
04:41PM 39.6272 -83.6656 105° East 78 90 6,400 360 Climbing Indianapolis Center
04:41PM 39.6214 -83.6494 115° Southeast 80 92 6,600 240 Climbing Indianapolis Center
04:42PM 39.6194 -83.6397 105° East 78 90 6,700 360 Climbing Indianapolis Center
04:42PM 39.6150 -83.6242 110° East 74 85 7,000 360 Climbing Indianapolis Center
04:43PM 39.6122 -83.6150 111° Southeast 75 86 7,100 180 Climbing Indianapolis Center
04:43PM 39.6061 -83.6014 120° Southeast 71 82 7,200 240 Climbing Indianapolis Center
04:44PM 39.6033 -83.5872 104° East 72 83 7,400 180 Climbing Indianapolis Center
04:44PM 39.6019 -83.5739 98° East 76 87 7,400 60 Level Indianapolis Center
04:45PM 39.5969 -83.5583 113° Southeast 79 91 7,500 60 Climbing Indianapolis Center
04:46PM 39.5922 -83.5347 105° East 96 110 7,500  Level Indianapolis Center
04:46PM 39.5911 -83.5239 98° East 93 107 7,500 120 Level Indianapolis Center
04:47PM 39.5825 -83.4878 107° East 102 117 7,700 60 Climbing Indianapolis Center
04:48PM 39.5686 -83.4542 118° Southeast 105 121 7,700  Level Indianapolis Center
04:49PM 39.5636 -83.4161 100° East 106 122 7,700  Level Indianapolis Center
04:50PM 39.5603 -83.3750 96° East 112 129 7,700 -60 Level Indianapolis Center
04:51PM 39.5583 -83.3319 93° East 117 135 7,600 -60 Descending Indianapolis Center
04:52PM 39.5556 -83.2878 95° East 121 139 7,600  Level Indianapolis Center
04:53PM 39.5547 -83.2450 91° East 119 137 7,600 -60 Level Indianapolis Center
04:54PM 39.5511 -83.2008 96° East 121 139 7,500 -120 Descending Indianapolis Center
04:55PM 39.5489 -83.1597 94° East 117 135 7,400 -60 Descending Indianapolis Center
04:56PM 39.5439 -83.1111 98° East 115 132 7,400  Level Indianapolis Center
04:57PM 39.5383 -83.0708 100° East 113 130 7,400  Level Indianapolis Center
04:58PM 39.5331 -83.0292 99° East 115 132 7,400  Level Indianapolis Center
04:59PM 39.5294 -82.9878 96° East 116 133 7,500  Climbing Indianapolis Center
05:00PM 39.5242 -82.9475 100° East 113 130 7,500  Level Indianapolis Center
05:01PM 39.5217 -82.9058 94° East 114 131 7,500 -120 Level Indianapolis Center
05:02PM 39.5161 -82.8653 100° East 114 131 7,300 -60 Descending Indianapolis Center
05:03PM 39.5125 -82.8247 97° East 112 129 7,400  Climbing Indianapolis Center
05:04PM 39.5078 -82.7853 99° East 112 129 7,400 -60 Level Indianapolis Center
05:05PM 39.5058 -82.7433 93° East 114 131 7,300  Descending Indianapolis Center
05:06PM 39.5050 -82.7000 91° East 119 137 7,400  Climbing Indianapolis Center
05:07PM 39.5003 -82.6517 97° East 115 132 7,400  Level Indianapolis Center
05:08PM 39.4964 -82.6086 97° East 118 136 7,400  Level Indianapolis Center
05:09PM 39.4906 -82.5669 100° East 118 136 7,400  Level Indianapolis Center
05:11PM 39.4825 -82.5253 104° East 119 137 7,400  Level Indianapolis Center
05:12PM 39.4764 -82.4825 100° East 119 137 7,400  Level Indianapolis Center
05:13PM 39.4697 -82.4406 102° East 119 137 7,500  Climbing Indianapolis Center
05:14PM 39.4639 -82.4000 101° East 116 133 7,500  Level Indianapolis Center
05:15PM 39.4556 -82.3586 105° East 117 135 7,500  Level Indianapolis Center
05:16PM 39.4461 -82.3167 106° East 120 138 7,500  Level Indianapolis Center
05:17PM 39.4428 -82.2719 95° East 121 139 7,500  Level Indianapolis Center
05:18PM 39.4353 -82.2281 102° East 117 135 7,500 -60 Level Indianapolis Center
05:19PM 39.4311 -82.1856 97° East 118 136 7,400 -60 Descending Indianapolis Center
05:20PM 39.4258 -82.1431 99° East 118 136 7,400  Level Indianapolis Center
05:21PM 39.4261 -82.1017 89° East 117 135 7,500 60 Climbing Indianapolis Center
05:22PM 39.4197 -82.0603 101° East 117 135 7,600  Climbing Indianapolis Center
05:23PM 39.4158 -82.0189 97° East 116 133 7,600 -60 Level Indianapolis Center
05:24PM 39.4086 -81.9769 103° East 119 137 7,500 -60 Descending Indianapolis Center
05:25PM 39.4042 -81.9256 96° East 120 138 7,500  Level Indianapolis Center
05:26PM 39.3989 -81.8833 99° East 119 137 7,600  Climbing Indianapolis Center
05:27PM 39.3961 -81.8419 95° East 117 135 7,600  Level Indianapolis Center
05:28PM 39.3908 -81.7992 99° East 119 137 7,600  Level Indianapolis Center
05:29PM 39.3853 -81.7572 100° East 119 137 7,600  Level Indianapolis Center
05:30PM 39.3806 -81.7144 98° East 119 137 7,600  Level Indianapolis Center
05:31PM 39.3786 -81.6706 93° East 121 139 7,600 -60 Level Indianapolis Center
05:32PM 39.3722 -81.6306 102° East 117 135 7,500 -60 Descending Indianapolis Center
05:33PM 39.3678 -81.5875 98° East 118 136 7,500  Level Indianapolis Center
05:34PM 39.3592 -81.5367 102° East 120 138 7,500  Level Indianapolis Center
05:35PM 39.3553 -81.4911 96° East 125 144 7,500  Level Indianapolis Center
05:36PM 39.3469 -81.4492 104° East 122 140 7,500  Level Indianapolis Center
05:37PM 39.3417 -81.4069 99° East 120 138 7,500  Level Indianapolis Center
05:38PM 39.3361 -81.3647 100° East 120 138 7,500  Level Indianapolis Center
05:39PM 39.3294 -81.3219 101° East 121 139 7,500  Level Indianapolis Center
05:40PM 39.3222 -81.2797 102° East 121 139 7,500 -60 Level Indianapolis Center
05:41PM 39.3156 -81.2375 102° East 120 138 7,400  Descending Indianapolis Center
05:42PM 39.3083 -81.1861 100° East 121 139 7,500  Climbing Indianapolis Center
05:43PM 39.3069 -81.1447 92° East 118 136 7,500  Level Indianapolis Center
05:44PM 39.3003 -81.1036 102° East 117 135 7,500  Level Indianapolis Center
05:45PM 39.2942 -81.0608 100° East 118 136 7,500  Level Indianapolis Center
05:46PM 39.2900 -81.0189 97° East 119 137 7,500 -60 Level Indianapolis Center
05:47PM 39.2797 -80.9792 108° East 117 135 7,400  Descending Indianapolis Center
05:48PM 39.2756 -80.9367 97° East 118 136 7,500 60 Climbing Indianapolis Center
05:50PM 39.2700 -80.8953 100° East 118 136 7,600  Climbing Indianapolis Center
05:51PM 39.2653 -80.8436 97° East 119 137 7,600 -60 Level Indianapolis Center
05:52PM 39.2614 -80.7994 96° East 121 139 7,500 -120 Descending Indianapolis Center
05:53PM 39.2569 -80.7569 98° East 121 139 7,400 -60 Descending Indianapolis Center
05:54PM 39.2522 -80.7144 98° East 120 138 7,400  Level Indianapolis Center
05:55PM 39.2469 -80.6714 99° East 121 139 7,500  Climbing Indianapolis Center
05:56PM 39.2400 -80.6308 102° East 118 136 7,500  Level Indianapolis Center
05:57PM 39.2314 -80.5894 105° East 118 136 7,600  Climbing Indianapolis Center
05:58PM 39.2203 -80.5494 110° East 117 135 7,600 -60 Level Indianapolis Center
05:59PM 39.2142 -80.5039 100° East 122 140 7,500 -60 Descending Indianapolis Center
06:00PM 39.2094 -80.4522 97° East 123 142 7,500  Level Indianapolis Center
06:01PM 39.2075 -80.4058 93° East 126 145 7,500  Level Indianapolis Center
06:03PM 39.1918 -80.3337 104° East  Level Estimated
06:10PM 39.1109 -80.0404 109° East  Level FlightAware Approximate
06:11PM 39.0993 -79.9985 110° East  Level FlightAware Approximate
06:12PM 39.0877 -79.9567 110° East  Level FlightAware Approximate
06:13PM 39.0760 -79.9148 110° East  Level FlightAware Approximate
06:14PM 39.0644 -79.8730 110° East  Level FlightAware Approximate
06:15PM 39.0527 -79.8312 110° East  Level FlightAware Approximate
06:16PM 39.0410 -79.7895 110° East  Level FlightAware Approximate
06:17PM 39.0293 -79.7477 110° East  Level FlightAware Approximate
06:18PM 39.0176 -79.7059 110° East  Level FlightAware Approximate
06:19PM 39.0058 -79.6642 110° East  Level FlightAware Approximate
06:20PM 38.9941 -79.6225 110° East  Level FlightAware Approximate
06:21PM 38.9823 -79.5808 110° East  Level FlightAware Approximate
06:22PM 38.9705 -79.5391 110° East  Level FlightAware Approximate
06:22PM 39.0806 -79.5197 107° East 119 137 7,600  Level Washington Center
06:23PM 38.9587 -79.4974 110° East  Level FlightAware Approximate
06:23PM 39.0672 -79.4817 114° Southeast 119 137 7,500  Level Washington Center
06:24PM 38.9461 -79.4498 107° East  Level FlightAware Approximate
06:24PM 39.0583 -79.4411 106° East 119 137 7,600  Level Washington Center
06:25PM 38.9361 -79.4074 107° East  Level FlightAware Approximate
06:25PM 39.0450 -79.3950 110° East 129 148 7,600  Level Washington Center
06:26PM 38.9262 -79.3649 107° East  Level FlightAware Approximate
06:26PM 39.0381 -79.3544 102° East 129 148 7,500  Level Washington Center
06:27PM 38.9162 -79.3225 107° East  Level FlightAware Approximate
06:27PM 39.0308 -79.3167 104° East 123 142 7,600  Level Washington Center
06:28PM 39.0239 -79.2736 102° East 117 135 7,500  Descending Washington Center
06:29PM 39.0167 -79.2383 105° East 112 129 7,600  Climbing Washington Center
06:30PM 39.0033 -79.1978 113° Southeast 112 129 7,600  Level Washington Center
06:31PM 38.9919 -79.1544 109° East 112 129 7,600  Level Washington Center
06:32PM 38.9808 -79.1111 108° East 112 129 7,600 -60 Level Washington Center
06:33PM 38.9819 -79.0658 88° East 118 136 7,500  Descending Washington Center
06:34PM 38.9644 -79.0250 119° Southeast 123 142 7,600  Climbing Washington Center
06:35PM 38.9511 -78.9842 113° Southeast 123 142 7,600 -60 Level Washington Center
06:36PM 38.9419 -78.9383 104° East 128 147 7,500  Descending Washington Center
06:37PM 38.9306 -78.8981 110° East 128 147 7,600  Climbing Washington Center
06:38PM 38.9172 -78.8547 112° Southeast 128 147 7,600  Level Washington Center
06:39PM 38.9014 -78.8167 118° Southeast 128 147 7,700  Climbing Washington Center
06:40PM 38.8922 -78.7736 105° East 128 147 7,700 -60 Level Washington Center
06:41PM 38.8850 -78.7306 102° East 128 147 7,600 -60 Descending Washington Center
06:42PM 38.8714 -78.6872 112° Southeast 128 147 7,600  Level Washington Center
06:43PM 38.8622 -78.6442 105° East 128 147 7,600 -60 Level Washington Center
06:44PM 38.8486 -78.6089 116° Southeast 128 147 7,500 -120 Descending Washington Center
06:45PM 38.8350 -78.5631 111° Southeast 117 135 7,400 -60 Descending Washington Center
06:46PM 38.8236 -78.5200 109° East 117 135 7,400  Level Washington Center
06:47PM 38.8100 -78.4822 115° Southeast 117 135 7,400  Level Washington Center
06:48PM 38.7983 -78.4392 109° East 117 135 7,400 -60 Level Washington Center
06:49PM 38.7892 -78.3933 104° East 117 135 7,300 -60 Descending Washington Center
06:50PM 38.7775 -78.3478 108° East 128 147 7,300  Level Washington Center
06:51PM 38.7681 -78.3047 106° East 128 147 7,300 -60 Level Washington Center
06:52PM 38.7567 -78.2592 108° East 128 147 7,200 -240 Descending Washington Center
06:53PM 38.7450 -78.2189 110° East 128 147 6,900 -420 Descending Washington Center
06:54PM 38.7167 -78.1500 118° Southeast 122 140 6,100 -540 Descending Potomac TRACON
06:56PM 38.7167 -78.1000 90° East 125 144 5,500 -540 Descending Potomac TRACON
06:56PM 38.7000 -78.0667 123° Southeast 121 139 5,100 -480 Descending Potomac TRACON
06:57PM 38.6833 -78.0167 113° Southeast 117 135 4,700 -480 Descending Potomac TRACON
06:58PM 38.6833 -77.9833 90° East 116 133 4,200 -480 Descending Potomac TRACON
06:59PM 38.6667 -77.9500 123° Southeast 117 135 3,800 -480 Descending Potomac TRACON
07:00PM 38.6500 -77.9167 123° Southeast 117 135 3,300 -600 Descending Potomac TRACON
07:02PM 38.6303 -77.8741 113° Southeast  Level FlightAware Approximate
07:09PM 38.5863 -77.7106 104° East  Level Estimated
07:10PM 38.5863 -77.7106 104° East  Level Estimated
07:11PM 38.5863 -77.7106 104° East  Level Estimated
07:12PM 38.5863 -77.7106 104° East  Level Estimated
07:13PM 38.5863 -77.7106 104° East  Level Estimated
07:14PM 38.5863 -77.7106 104° East  Level Estimated
07:15PM 38.5863 -77.7106 104° East  Level Estimated
07:16PM 38.5863 -77.7106 104° East  Level Estimated
07:17PM 38.5863 -77.7106 104° East  Level Estimated
07:18PM 38.5863 -77.7106 104° East  Level Estimated
07:19PM 38.5863 -77.7106 104° East  Level Estimated
07:20PM 38.5863 -77.7106 104° East  Level Estimated
07:21PM 38.5863 -77.7106 104° East  Level Estimated
07:22PM 38.5863 -77.7106 104° East  Level Estimated